Time,TemperatureF,DewpointF,PressureIn,WindDirection,WindDirectionDegrees,WindSpeedMPH,WindSpeedGustMPH,Humidity,HourlyPrecipIn,Conditions,Clouds,dailyrainin,SoftwareType,DateUTC
2013-02-12 00:01:00,11.0,10.0,30.08,North,360,0.0,0.0,94,0.00,,,-99.99,,2013-02-12 07:01:00,
2013-02-12 00:11:00,11.0,10.0,30.08,North,360,0.0,0.0,94,0.00,,,-99.99,,2013-02-12 07:11:00,
2013-02-12 00:31:00,11.0,9.0,30.08,North,360,0.0,0.0,93,0.00,,,-99.99,,2013-02-12 07:31:00,
2013-02-12 00:41:00,11.0,9.0,30.08,North,360,0.0,0.0,93,0.00,,,-99.99,,2013-02-12 07:41:00,
2013-02-12 00:52:00,11.0,9.0,30.08,North,360,0.0,0.0,93,0.00,,,-99.99,,2013-02-12 07:52:00,
2013-02-12 01:01:00,8.0,6.0,30.09,North,360,0.0,0.0,92,0.00,,,-99.99,,2013-02-12 08:01:00,
2013-02-12 01:11:00,8.0,6.0,30.09,North,360,0.0,0.0,92,0.00,,,-99.99,,2013-02-12 08:11:00,
2013-02-12 01:21:00,12.0,11.0,30.10,North,360,0.0,0.0,95,0.00,,,-99.99,,2013-02-12 08:21:00,
2013-02-12 01:31:00,11.0,9.0,30.10,North,360,0.0,0.0,91,0.00,,,-99.99,,2013-02-12 08:31:00,
2013-02-12 01:41:00,11.0,9.0,30.10,North,360,0.0,0.0,91,0.00,,,-99.99,,2013-02-12 08:41:00,
2013-02-12 01:52:00,11.0,9.0,30.10,North,360,0.0,0.0,92,0.00,,,-99.99,,2013-02-12 08:52:00,
2013-02-12 02:01:00,9.0,6.0,30.09,North,360,0.0,0.0,89,0.00,,,-99.99,,2013-02-12 09:01:00,
2013-02-12 02:11:00,9.0,7.0,30.10,North,360,0.0,0.0,91,0.00,,,-99.99,,2013-02-12 09:11:00,
2013-02-12 02:21:00,9.0,7.0,30.10,North,360,0.0,0.0,91,0.00,,,-99.99,,2013-02-12 09:21:00,
2013-02-12 02:31:00,11.0,9.0,30.09,North,360,0.0,0.0,91,0.00,,,-99.99,,2013-02-12 09:31:00,
2013-02-12 02:41:00,10.0,9.0,30.10,North,360,0.0,0.0,94,0.00,,,-99.99,,2013-02-12 09:41:00,
2013-02-12 02:51:00,10.0,9.0,30.10,North,360,0.0,0.0,94,0.00,,,-99.99,,2013-02-12 09:51:00,
2013-02-12 03:01:00,11.0,9.0,30.10,North,360,0.0,0.0,91,0.00,,,-99.99,,2013-02-12 10:01:00,
2013-02-12 03:11:00,9.0,7.0,30.09,North,360,0.0,0.0,91,0.00,,,-99.99,,2013-02-12 10:11:00,
2013-02-12 03:21:00,9.0,7.0,30.09,North,360,0.0,0.0,91,0.00,,,-99.99,,2013-02-12 10:21:00,
2013-02-12 03:31:00,8.0,6.0,30.09,North,360,0.0,0.0,91,0.00,,,-99.99,,2013-02-12 10:31:00,
2013-02-12 03:43:00,8.0,6.0,30.09,North,360,0.0,0.0,91,0.00,,,-99.99,,2013-02-12 10:43:00,
2013-02-12 03:51:00,8.0,6.0,30.09,North,360,0.0,0.0,91,0.00,,,-99.99,,2013-02-12 10:51:00,
2013-02-12 04:01:00,5.0,3.0,30.10,North,360,0.0,0.0,93,0.00,,,-99.99,,2013-02-12 11:01:00,
2013-02-12 04:11:00,5.0,3.0,30.10,North,360,0.0,0.0,93,0.00,,,-99.99,,2013-02-12 11:11:00,
2013-02-12 04:21:00,7.0,6.0,30.09,North,360,0.0,0.0,95,0.00,,,-99.99,,2013-02-12 11:21:00,
2013-02-12 04:31:00,8.0,7.0,30.10,North,360,0.0,0.0,95,0.00,,,-99.99,,2013-02-12 11:31:00,
2013-02-12 04:41:00,8.0,7.0,30.10,North,360,0.0,0.0,95,0.00,,,-99.99,,2013-02-12 11:41:00,
2013-02-12 04:52:00,8.0,7.0,30.10,North,360,0.0,0.0,95,0.00,,,-99.99,,2013-02-12 11:52:00,
2013-02-12 05:01:00,5.0,3.0,30.09,North,360,0.0,0.0,93,0.00,,,-99.99,,2013-02-12 12:01:00,
2013-02-12 05:11:00,5.0,3.0,30.09,North,360,0.0,0.0,93,0.00,,,-99.99,,2013-02-12 12:11:00,
2013-02-12 05:21:00,5.0,3.0,30.09,North,360,0.0,0.0,93,0.00,,,-99.99,,2013-02-12 12:21:00,
2013-02-12 05:32:00,7.0,6.0,30.11,North,360,0.0,0.0,94,0.00,,,-99.99,,2013-02-12 12:32:00,
2013-02-12 05:41:00,7.0,6.0,30.11,North,360,0.0,0.0,94,0.00,,,-99.99,,2013-02-12 12:41:00,
2013-02-12 05:52:00,7.0,6.0,30.11,North,360,0.0,0.0,94,0.00,,,-99.99,,2013-02-12 12:52:00,
2013-02-12 06:01:00,9.0,8.0,30.11,North,360,0.0,0.0,95,0.00,,,-99.99,,2013-02-12 13:01:00,
2013-02-12 06:11:00,9.0,8.0,30.11,North,360,0.0,0.0,95,0.00,,,-99.99,,2013-02-12 13:11:00,
2013-02-12 06:22:00,9.0,8.0,30.11,North,360,0.0,0.0,95,0.00,,,-99.99,,2013-02-12 13:22:00,
2013-02-12 06:31:00,9.0,8.0,30.11,North,360,0.0,0.0,95,0.00,,,-99.99,,2013-02-12 13:31:00,
2013-02-12 06:52:00,5.0,3.0,30.11,North,360,0.0,0.0,92,0.00,,,-99.99,,2013-02-12 13:52:00,
2013-02-12 07:01:00,1.0,-2.0,30.12,North,360,0.0,0.0,88,0.00,,,-99.99,,2013-02-12 14:01:00,
2013-02-12 07:11:00,1.0,-2.0,30.12,North,360,0.0,0.0,88,0.00,,,-99.99,,2013-02-12 14:11:00,
2013-02-12 07:21:00,1.0,-2.0,30.12,North,360,0.0,0.0,88,0.00,,,-99.99,,2013-02-12 14:21:00,
2013-02-12 07:31:00,0.0,-2.0,30.13,North,360,0.0,0.0,89,0.00,,,-99.99,,2013-02-12 14:31:00,
2013-02-12 07:41:00,0.0,-2.0,30.13,North,360,0.0,0.0,89,0.00,,,-99.99,,2013-02-12 14:41:00,
2013-02-12 07:52:00,1.0,-1.0,30.14,North,360,0.0,0.0,89,0.00,,,-99.99,,2013-02-12 14:52:00,
2013-02-12 08:01:00,1.0,-1.0,30.14,North,360,0.0,0.0,89,0.00,,,-99.99,,2013-02-12 15:01:00,
2013-02-12 08:11:00,7.0,5.0,30.14,North,360,0.0,0.0,91,0.00,,,-99.99,,2013-02-12 15:11:00,
2013-02-12 08:21:00,7.0,5.0,30.14,North,360,0.0,0.0,91,0.00,,,-99.99,,2013-02-12 15:21:00,
2013-02-12 08:32:00,10.0,8.0,30.14,North,360,0.0,0.0,93,0.00,,,-99.99,,2013-02-12 15:32:00,
2013-02-12 08:41:00,10.0,8.0,30.14,North,360,0.0,0.0,93,0.00,,,-99.99,,2013-02-12 15:41:00,
2013-02-12 08:52:00,10.0,8.0,30.14,North,360,0.0,0.0,93,0.00,,,-99.99,,2013-02-12 15:52:00,
2013-02-12 09:01:00,10.0,8.0,30.14,North,360,0.0,0.0,93,0.00,,,-99.99,,2013-02-12 16:01:00,
2013-02-12 09:22:00,8.0,1.0,30.15,North,360,0.0,0.0,73,0.00,,,-99.99,,2013-02-12 16:22:00,
2013-02-12 09:31:00,21.0,14.0,30.15,North,360,0.0,0.0,73,0.00,,,-99.99,,2013-02-12 16:31:00,
2013-02-12 09:41:00,21.0,14.0,30.15,North,360,0.0,0.0,73,0.00,,,-99.99,,2013-02-12 16:41:00,
2013-02-12 09:51:00,19.0,9.0,30.16,North,360,0.0,0.0,64,0.00,,,-99.99,,2013-02-12 16:51:00,
2013-02-12 10:01:00,23.0,13.0,30.16,North,360,0.0,0.0,65,0.00,,,-99.99,,2013-02-12 17:01:00,
2013-02-12 10:31:00,29.0,16.0,30.18,North,360,0.0,0.0,59,0.00,,,-99.99,,2013-02-12 17:31:00,
2013-02-12 10:42:00,29.0,16.0,30.18,North,360,0.0,0.0,59,0.00,,,-99.99,,2013-02-12 17:42:00,
2013-02-12 10:52:00,33.0,19.0,30.18,North,360,0.0,0.0,55,0.00,,,-99.99,,2013-02-12 17:52:00,
2013-02-12 11:01:00,35.0,16.0,30.18,North,360,0.0,0.0,46,0.00,,,-99.99,,2013-02-12 18:01:00,
2013-02-12 11:31:00,27.0,13.0,30.18,North,360,0.0,0.0,54,0.00,,,-99.99,,2013-02-12 18:31:00,
2013-02-12 11:42:00,27.0,13.0,30.18,North,360,0.0,0.0,54,0.00,,,-99.99,,2013-02-12 18:42:00,
2013-02-12 11:52:00,28.0,16.0,30.18,North,360,0.0,0.0,59,0.00,,,-99.99,,2013-02-12 18:52:00,
2013-02-12 12:01:00,28.0,16.0,30.18,North,360,0.0,0.0,59,0.00,,,-99.99,,2013-02-12 19:01:00,
2013-02-12 12:11:00,29.0,13.0,30.17,North,360,0.0,0.0,51,0.00,,,-99.99,,2013-02-12 19:11:00,
2013-02-12 12:21:00,29.0,13.0,30.17,North,360,0.0,0.0,51,0.00,,,-99.99,,2013-02-12 19:21:00,
2013-02-12 12:31:00,30.0,13.0,30.17,North,360,0.0,0.0,48,0.00,,,-99.99,,2013-02-12 19:31:00,
2013-02-12 12:42:00,30.0,15.0,30.17,North,360,0.0,0.0,52,0.00,,,-99.99,,2013-02-12 19:42:00,
2013-02-12 12:52:00,30.0,15.0,30.17,North,360,0.0,0.0,52,0.00,,,-99.99,,2013-02-12 19:52:00,
2013-02-12 13:01:00,32.0,14.0,30.16,North,360,0.0,0.0,46,0.00,,,-99.99,,2013-02-12 20:01:00,
2013-02-12 13:11:00,32.0,14.0,30.16,North,360,0.0,0.0,46,0.00,,,-99.99,,2013-02-12 20:11:00,
2013-02-12 13:21:00,32.0,14.0,30.16,North,360,0.0,0.0,46,0.00,,,-99.99,,2013-02-12 20:21:00,
2013-02-12 13:31:00,37.0,11.0,30.15,North,360,0.0,0.0,34,0.00,,,-99.99,,2013-02-12 20:31:00,
2013-02-12 13:41:00,37.0,11.0,30.15,North,360,0.0,0.0,34,0.00,,,-99.99,,2013-02-12 20:41:00,
2013-02-12 13:52:00,41.0,10.0,30.15,North,360,0.0,0.0,27,0.00,,,-99.99,,2013-02-12 20:52:00,
2013-02-12 14:01:00,41.0,10.0,30.15,North,360,0.0,0.0,27,0.00,,,-99.99,,2013-02-12 21:01:00,
2013-02-12 14:21:00,41.0,10.0,30.15,North,360,0.0,0.0,27,0.00,,,-99.99,,2013-02-12 21:21:00,
2013-02-12 14:42:00,46.0,13.0,30.14,North,360,0.0,0.0,26,0.00,,,-99.99,,2013-02-12 21:42:00,
2013-02-12 14:52:00,46.0,13.0,30.14,North,360,0.0,0.0,26,0.00,,,-99.99,,2013-02-12 21:52:00,
2013-02-12 15:01:00,45.0,6.0,30.14,North,360,0.0,0.0,20,0.00,,,-99.99,,2013-02-12 22:01:00,
2013-02-12 15:31:00,38.0,16.0,30.14,North,360,0.0,0.0,40,0.00,,,-99.99,,2013-02-12 22:31:00,
2013-02-12 15:41:00,38.0,16.0,30.14,North,360,0.0,0.0,40,0.00,,,-99.99,,2013-02-12 22:41:00,
2013-02-12 15:52:00,38.0,16.0,30.14,North,360,0.0,0.0,40,0.00,,,-99.99,,2013-02-12 22:52:00,
2013-02-12 16:01:00,38.0,16.0,30.14,North,360,0.0,0.0,40,0.00,,,-99.99,,2013-02-12 23:01:00,
2013-02-12 16:11:00,38.0,16.0,30.14,North,360,0.0,0.0,40,0.00,,,-99.99,,2013-02-12 23:11:00,
2013-02-12 16:32:00,38.0,20.0,30.15,North,360,0.0,0.0,48,0.00,,,-99.99,,2013-02-12 23:32:00,
2013-02-12 16:42:00,38.0,20.0,30.15,North,360,0.0,0.0,48,0.00,,,-99.99,,2013-02-12 23:42:00,
2013-02-12 16:52:00,38.0,21.0,30.15,North,360,0.0,0.0,50,0.00,,,-99.99,,2013-02-12 23:52:00,
2013-02-12 17:02:00,38.0,21.0,30.15,North,360,0.0,0.0,50,0.00,,,-99.99,,2013-02-13 00:02:00,
2013-02-12 17:32:00,42.0,22.0,30.15,North,360,0.0,0.0,45,0.00,,,-99.99,,2013-02-13 00:32:00,
2013-02-12 17:42:00,42.0,22.0,30.15,North,360,0.0,0.0,45,0.00,,,-99.99,,2013-02-13 00:42:00,
2013-02-12 17:52:00,40.0,13.0,30.15,North,360,0.0,0.0,33,0.00,,,-99.99,,2013-02-13 00:52:00,
2013-02-12 18:01:00,36.0,12.0,30.16,North,360,0.0,0.0,36,0.00,,,-99.99,,2013-02-13 01:01:00,
2013-02-12 18:11:00,36.0,12.0,30.16,North,360,0.0,0.0,36,0.00,,,-99.99,,2013-02-13 01:11:00,
2013-02-12 18:21:00,36.0,12.0,30.16,North,360,0.0,0.0,36,0.00,,,-99.99,,2013-02-13 01:21:00,
2013-02-12 18:31:00,27.0,11.0,30.16,North,360,0.0,0.0,50,0.00,,,-99.99,,2013-02-13 01:31:00,
2013-02-12 18:42:00,26.0,12.0,30.17,North,360,0.0,0.0,54,0.00,,,-99.99,,2013-02-13 01:42:00,
2013-02-12 18:52:00,26.0,12.0,30.17,North,360,0.0,0.0,54,0.00,,,-99.99,,2013-02-13 01:52:00,
2013-02-12 19:01:00,25.0,10.0,30.16,North,360,0.0,0.0,53,0.00,,,-99.99,,2013-02-13 02:01:00,
2013-02-12 19:11:00,24.0,11.0,30.18,North,360,0.0,0.0,56,0.00,,,-99.99,,2013-02-13 02:11:00,
2013-02-12 19:21:00,24.0,11.0,30.18,North,360,0.0,0.0,56,0.00,,,-99.99,,2013-02-13 02:21:00,
2013-02-12 19:31:00,24.0,12.0,30.18,North,360,0.0,0.0,60,0.00,,,-99.99,,2013-02-13 02:31:00,
2013-02-12 19:41:00,24.0,12.0,30.18,North,360,0.0,0.0,60,0.00,,,-99.99,,2013-02-13 02:41:00,
2013-02-12 19:51:00,24.0,11.0,30.17,North,360,0.0,0.0,56,0.00,,,-99.99,,2013-02-13 02:51:00,
2013-02-12 20:01:00,24.0,13.0,30.18,North,360,0.0,0.0,62,0.00,,,-99.99,,2013-02-13 03:01:00,
2013-02-12 20:11:00,24.0,12.0,30.18,North,360,0.0,0.0,60,0.00,,,-99.99,,2013-02-13 03:11:00,
2013-02-12 20:21:00,24.0,12.0,30.18,North,360,0.0,0.0,60,0.00,,,-99.99,,2013-02-13 03:21:00,
2013-02-12 20:32:00,24.0,12.0,30.18,North,360,0.0,0.0,60,0.00,,,-99.99,,2013-02-13 03:32:00,
2013-02-12 20:41:00,24.0,12.0,30.18,North,360,0.0,0.0,60,0.00,,,-99.99,,2013-02-13 03:41:00,
2013-02-12 20:51:00,22.0,10.0,30.18,North,360,0.0,0.0,58,0.00,,,-99.99,,2013-02-13 03:51:00,
2013-02-12 21:01:00,22.0,10.0,30.18,North,360,0.0,0.0,58,0.00,,,-99.99,,2013-02-13 04:01:00,
2013-02-12 21:11:00,22.0,10.0,30.18,North,360,0.0,0.0,58,0.00,,,-99.99,,2013-02-13 04:11:00,
2013-02-12 21:21:00,22.0,10.0,30.18,North,360,0.0,0.0,58,0.00,,,-99.99,,2013-02-13 04:21:00,
2013-02-12 21:32:00,18.0,9.0,30.18,North,360,0.0,0.0,68,0.00,,,-99.99,,2013-02-13 04:32:00,
2013-02-12 21:42:00,18.0,9.0,30.18,North,360,0.0,0.0,68,0.00,,,-99.99,,2013-02-13 04:42:00,
2013-02-12 21:52:00,17.0,10.0,30.18,North,360,0.0,0.0,73,0.00,,,-99.99,,2013-02-13 04:52:00,
2013-02-12 22:01:00,17.0,9.0,30.19,North,360,0.0,0.0,69,0.00,,,-99.99,,2013-02-13 05:01:00,
2013-02-12 22:11:00,15.0,9.0,30.19,North,360,0.0,0.0,77,0.00,,,-99.99,,2013-02-13 05:11:00,
2013-02-12 22:21:00,15.0,9.0,30.19,North,360,0.0,0.0,77,0.00,,,-99.99,,2013-02-13 05:21:00,
2013-02-12 22:31:00,15.0,9.0,30.19,North,360,0.0,0.0,77,0.00,,,-99.99,,2013-02-13 05:31:00,
2013-02-12 22:41:00,15.0,9.0,30.19,North,360,0.0,0.0,77,0.00,,,-99.99,,2013-02-13 05:41:00,
2013-02-12 22:52:00,15.0,11.0,30.19,North,360,0.0,0.0,83,0.00,,,-99.99,,2013-02-13 05:52:00,
2013-02-12 23:01:00,14.0,8.0,30.18,North,360,0.0,0.0,75,0.00,,,-99.99,,2013-02-13 06:01:00,
2013-02-12 23:11:00,14.0,8.0,30.18,North,360,0.0,0.0,75,0.00,,,-99.99,,2013-02-13 06:11:00,
2013-02-12 23:21:00,14.0,8.0,30.18,North,360,0.0,0.0,75,0.00,,,-99.99,,2013-02-13 06:21:00,
2013-02-12 23:31:00,10.0,6.0,30.19,North,360,0.0,0.0,85,0.00,,,-99.99,,2013-02-13 06:31:00,
2013-02-12 23:41:00,10.0,6.0,30.19,North,360,0.0,0.0,85,0.00,,,-99.99,,2013-02-13 06:41:00,
2013-02-12 23:52:00,10.0,6.0,30.19,North,360,0.0,0.0,85,0.00,,,-99.99,,2013-02-13 06:52:00,